Time;durP1;ratioP1;P1;durP2;ratioP2;P2;SDS_P1;SDS_P2;PMS_P1;PMS_P2;Temp;Humidity;BMP_temperature;BMP_pressure;BME280_temperature;BME280_humidity;BME280_pressure;Samples;Min_cycle;Max_cycle;Signal;HPM_P1;HPM_P2
2023/09/28 00:01:13;;;;;;;12.05;2.63;;;23.70;63.80;;;;;;6184673;23;20043;-82
2023/09/28 00:03:39;;;;;;;;;;;23.60;63.80;;;;;;6185903;23;20005;-82
2023/09/28 00:06:04;;;;;;;4.13;2.40;;;23.60;63.90;;;;;;6184001;23;19904;-82
2023/09/28 00:08:32;;;;;;;4.75;3.33;;;23.60;63.90;;;;;;6185529;23;20001;-82
2023/09/28 00:10:58;;;;;;;5.50;3.22;;;23.60;63.90;;;;;;6184979;23;20005;-83
2023/09/28 00:13:23;;;;;;;3.17;2.65;;;23.60;64.00;;;;;;6184800;23;20040;-83
2023/09/28 00:15:49;;;;;;;5.28;2.75;;;23.60;64.10;;;;;;6183166;23;20005;-83
2023/09/28 00:18:15;;;;;;;7.65;2.40;;;23.60;63.90;;;;;;6184807;23;20404;-82
2023/09/28 00:20:40;;;;;;;4.60;2.88;;;23.60;64.00;;;;;;6185701;23;20009;-83
2023/09/28 00:23:06;;;;;;;6.95;2.88;;;23.60;63.90;;;;;;6184625;23;20412;-83
2023/09/28 00:25:32;;;;;;;4.50;2.75;;;23.60;63.90;;;;;;6185565;23;20486;-82
2023/09/28 00:27:57;;;;;;;7.97;3.05;;;23.60;63.60;;;;;;6185267;23;20376;-80
2023/09/28 00:30:26;;;;;;;4.63;2.80;;;23.60;63.50;;;;;;6185044;23;20024;-81
2023/09/28 00:32:55;;;;;;;6.53;2.90;;;23.60;63.70;;;;;;6184596;23;20001;-81
2023/09/28 00:35:22;;;;;;;5.45;2.65;;;23.60;63.60;;;;;;6184939;23;20039;-81
2023/09/28 00:37:48;;;;;;;4.68;2.72;;;23.50;63.70;;;;;;6185294;23;20005;-80
2023/09/28 00:40:32;;;;;;;7.68;2.38;;;23.50;63.70;;;;;;6184918;23;20036;-80
2023/09/28 00:43:00;;;;;;;8.02;3.00;;;23.50;63.90;;;;;;6184732;23;20128;-81
2023/09/28 00:45:26;;;;;;;4.88;2.78;;;23.50;63.80;;;;;;6184373;23;20008;-80
2023/09/28 00:47:56;;;;;;;4.43;2.60;;;23.50;63.70;;;;;;6183304;23;20016;-79
2023/09/28 00:50:22;;;;;;;3.95;2.55;;;23.50;63.60;;;;;;6183867;23;20036;-79
2023/09/28 00:52:58;;;;;;;4.13;2.80;;;23.50;63.60;;;;;;6184540;23;20001;-79
2023/09/28 00:55:25;;;;;;;3.80;2.50;;;23.50;63.70;;;;;;6184395;23;20029;-80
2023/09/28 00:57:51;;;;;;;4.88;2.55;;;23.40;63.80;;;;;;6184510;23;20028;-79
2023/09/28 01:00:26;;;;;;;4.28;2.55;;;23.40;63.70;;;;;;6184144;23;20009;-79
2023/09/28 01:02:54;;;;;;;5.40;2.50;;;23.40;63.90;;;;;;6184067;23;20008;-79
2023/09/28 01:05:30;;;;;;;5.03;2.88;;;23.40;63.70;;;;;;6184505;23;20411;-81
2023/09/28 01:08:05;;;;;;;9.98;2.63;;;23.40;63.80;;;;;;6183852;23;20097;-81
2023/09/28 01:10:35;;;;;;;3.22;2.13;;;23.40;63.70;;;;;;6186160;23;20079;-80
2023/09/28 01:13:11;;;;;;;2.92;2.50;;;23.40;64.20;;;;;;6186548;23;19997;-80
2023/09/28 01:15:37;;;;;;;5.25;2.63;;;23.40;63.80;;;;;;6186442;23;20053;-80
2023/09/28 01:18:03;;;;;;;5.78;2.28;;;23.40;63.70;;;;;;6184504;23;20001;-79
2023/09/28 01:20:37;;;;;;;5.45;2.90;;;23.40;63.70;;;;;;6186103;23;20080;-80
2023/09/28 01:23:04;;;;;;;4.15;2.60;;;23.40;63.70;;;;;;6186234;23;20005;-81
2023/09/28 01:25:33;;;;;;;4.30;2.28;;;23.40;63.60;;;;;;6186412;23;20088;-80
2023/09/28 01:28:00;;;;;;;5.00;2.30;;;23.40;63.70;;;;;;6185183;23;20203;-80
2023/09/28 01:30:26;;;;;;;5.40;3.40;;;23.40;63.80;;;;;;6185955;23;20020;-78
2023/09/28 01:32:53;;;;;;;5.10;2.67;;;23.40;63.60;;;;;;6185981;23;19997;-78
2023/09/28 01:35:20;;;;;;;3.78;2.30;;;23.40;63.60;;;;;;6185741;23;20001;-77
2023/09/28 01:38:16;;;;;;;4.60;2.20;;;23.30;63.50;;;;;;6186392;23;20005;-77
2023/09/28 01:40:42;;;;;;;3.47;2.50;;;23.30;63.20;;;;;;6185923;23;20005;-77
2023/09/28 01:43:08;;;;;;;4.15;2.42;;;23.20;63.10;;;;;;6185540;23;20005;-77
2023/09/28 01:45:34;;;;;;;3.13;2.20;;;23.20;63.20;;;;;;6185734;23;20005;-77
2023/09/28 01:48:03;;;;;;;3.88;2.45;;;23.20;63.30;;;;;;6185999;23;20058;-77
2023/09/28 01:50:28;;;;;;;4.93;2.45;;;23.20;63.40;;;;;;6184791;23;20084;-77
2023/09/28 01:52:54;;;;;;;5.85;2.35;;;23.10;63.40;;;;;;6185161;23;20079;-77
2023/09/28 01:55:20;;;;;;;3.97;2.28;;;23.10;63.50;;;;;;6185358;23;20001;-77
2023/09/28 01:57:45;;;;;;;6.07;2.75;;;23.00;63.60;;;;;;6184856;23;20353;-77
2023/09/28 02:00:15;;;;;;;6.22;2.45;;;23.00;63.80;;;;;;6185254;23;20412;-76
2023/09/28 02:02:43;;;;;;;6.18;2.13;;;23.00;63.90;;;;;;6185468;23;19997;-76
2023/09/28 02:05:11;;;;;;;5.05;2.72;;;23.00;64.00;;;;;;6184599;23;20005;-77
2023/09/28 02:07:37;;;;;;;3.35;2.20;;;22.90;64.00;;;;;;6186344;23;19997;-79
2023/09/28 02:10:06;;;;;;;10.40;2.70;;;22.90;64.10;;;;;;6183939;23;20012;-79
2023/09/28 02:12:32;;;;;;;6.35;2.08;;;22.90;64.20;;;;;;6186007;23;20005;-79
2023/09/28 02:15:03;;;;;;;2.90;2.38;;;22.90;64.40;;;;;;6186035;23;20072;-78
2023/09/28 02:17:29;;;;;;;2.97;2.30;;;22.80;64.70;;;;;;6185790;23;20005;-78
2023/09/28 02:19:55;;;;;;;3.08;2.38;;;22.70;64.80;;;;;;6183696;23;20443;-78
2023/09/28 02:22:20;;;;;;;4.20;2.47;;;22.70;64.90;;;;;;6185871;23;20032;-78
2023/09/28 02:24:47;;;;;;;3.55;2.42;;;22.70;65.20;;;;;;6185220;23;20058;-77
2023/09/28 02:27:13;;;;;;;3.70;2.33;;;22.60;65.20;;;;;;6186210;23;19997;-77
2023/09/28 02:29:39;;;;;;;4.38;2.47;;;22.60;65.30;;;;;;6185972;23;20004;-78
2023/09/28 02:32:04;;;;;;;3.75;2.70;;;22.60;65.50;;;;;;6185627;23;20017;-79
2023/09/28 02:34:33;;;;;;;5.20;2.53;;;22.60;65.60;;;;;;6185146;23;20388;-79
2023/09/28 02:37:00;;;;;;;4.20;2.60;;;22.50;65.70;;;;;;6186512;23;20012;-80
2023/09/28 02:39:28;;;;;;;6.00;2.78;;;22.50;65.80;;;;;;6184419;23;20060;-80
2023/09/28 02:41:55;;;;;;;6.35;3.20;;;22.50;66.00;;;;;;6183918;23;20005;-80
2023/09/28 02:44:21;;;;;;;6.05;2.67;;;22.40;66.10;;;;;;6185674;23;20039;-80
2023/09/28 02:46:48;;;;;;;4.43;2.45;;;22.40;66.30;;;;;;6186007;23;20008;-79
2023/09/28 02:49:14;;;;;;;5.20;2.50;;;22.40;66.90;;;;;;6185616;23;20307;-79
2023/09/28 02:51:39;;;;;;;4.25;2.60;;;22.30;66.50;;;;;;6185457;23;20059;-79
2023/09/28 02:54:05;;;;;;;4.18;2.70;;;22.30;66.60;;;;;;6183315;23;20005;-79
2023/09/28 02:56:31;;;;;;;3.40;2.20;;;22.30;66.70;;;;;;6184411;23;20005;-79
2023/09/28 02:58:57;;;;;;;3.75;2.60;;;22.20;66.70;;;;;;6185861;23;20019;-79
2023/09/28 03:01:23;;;;;;;5.18;2.58;;;22.20;66.90;;;;;;6184960;23;20009;-79
2023/09/28 03:03:50;;;;;;;4.60;2.85;;;22.10;67.00;;;;;;6185272;23;20059;-78
2023/09/28 03:06:15;;;;;;;4.30;2.60;;;22.10;67.00;;;;;;6185376;23;20454;-79
2023/09/28 03:08:41;;;;;;;7.43;3.00;;;22.10;67.10;;;;;;6181993;23;20084;-79
2023/09/28 03:11:07;;;;;;;4.55;2.50;;;22.10;67.20;;;;;;6184469;23;20036;-78
2023/09/28 03:13:32;;;;;;;7.18;2.80;;;22.10;67.20;;;;;;6185383;23;20051;-78
2023/09/28 03:15:58;;;;;;;5.30;2.90;;;22.00;67.10;;;;;;6185227;23;20004;-79
2023/09/28 03:18:24;;;;;;;5.13;2.60;;;22.10;67.20;;;;;;6185314;23;20055;-78
2023/09/28 03:20:49;;;;;;;4.47;2.50;;;22.00;67.20;;;;;;6185156;23;20032;-78
2023/09/28 03:23:15;;;;;;;5.38;2.72;;;22.00;67.40;;;;;;6184847;23;20001;-79
2023/09/28 03:25:42;;;;;;;5.68;2.80;;;22.00;67.60;;;;;;6184083;23;20013;-80
2023/09/28 03:28:08;;;;;;;6.30;3.17;;;22.00;67.70;;;;;;6185439;23;20008;-80
2023/09/28 03:30:44;;;;;;;4.47;3.00;;;21.90;67.50;;;;;;6184261;23;20017;-79
2023/09/28 03:33:09;;;;;;;5.00;2.60;;;21.90;67.70;;;;;;6184971;23;20029;-77
2023/09/28 03:35:35;;;;;;;6.07;2.33;;;21.90;67.80;;;;;;6184884;23;20001;-77
2023/09/28 03:38:03;;;;;;;6.68;2.22;;;21.80;67.90;;;;;;6183713;23;20031;-81
2023/09/28 03:40:33;;;;;;;5.95;2.78;;;21.90;68.00;;;;;;6185022;23;20036;-81
2023/09/28 03:43:00;;;;;;;4.43;2.28;;;21.80;68.10;;;;;;6183922;23;20016;-81
2023/09/28 03:45:26;;;;;;;7.70;2.92;;;21.80;68.20;;;;;;6185077;23;20004;-81
2023/09/28 03:47:53;;;;;;;4.45;2.40;;;21.80;68.30;;;;;;6184975;23;20012;-82
2023/09/28 03:50:20;;;;;;;8.07;2.72;;;21.80;68.30;;;;;;6184529;23;20029;-81
2023/09/28 03:52:49;;;;;;;7.88;2.53;;;21.80;68.40;;;;;;6184207;23;20332;-81
2023/09/28 03:55:18;;;;;;;3.33;2.47;;;21.70;68.40;;;;;;6184798;23;20024;-81
2023/09/28 03:57:58;;;;;;;3.50;2.78;;;21.70;68.40;;;;;;6185037;23;20001;-81
2023/09/28 04:00:24;;;;;;;6.47;2.85;;;21.70;68.50;;;;;;6184302;23;20490;-81
2023/09/28 04:02:54;;;;;;;4.55;2.88;;;21.70;68.70;;;;;;6183440;23;20092;-81
2023/09/28 04:05:27;;;;;;;6.07;2.58;;;21.80;68.80;;;;;;6184120;23;20019;-82
2023/09/28 04:08:01;;;;;;;4.20;2.72;;;21.80;68.60;;;;;;6184397;23;20013;-80
2023/09/28 04:10:27;;;;;;;5.47;2.35;;;21.70;68.40;;;;;;6184844;23;20011;-81
2023/09/28 04:12:53;;;;;;;4.00;2.90;;;21.70;68.50;;;;;;6184958;23;19997;-81
2023/09/28 04:15:19;;;;;;;6.45;3.20;;;21.70;68.50;;;;;;6184783;23;20080;-81
2023/09/28 04:17:45;;;;;;;5.80;2.60;;;21.70;68.80;;;;;;6185177;23;20029;-81
2023/09/28 04:20:11;;;;;;;6.22;2.50;;;21.70;68.80;;;;;;6184534;23;20001;-80
2023/09/28 04:22:37;;;;;;;5.18;2.90;;;21.70;68.90;;;;;;6184468;23;20001;-78
2023/09/28 04:25:03;;;;;;;5.05;2.60;;;21.70;68.90;;;;;;6184459;23;20004;-77
2023/09/28 04:27:32;;;;;;;6.35;3.17;;;21.70;68.90;;;;;;6183709;23;20001;-78
2023/09/28 04:29:57;;;;;;;3.08;2.22;;;21.60;69.00;;;;;;6181971;23;20021;-78
2023/09/28 04:32:36;;;;;;;6.82;3.65;;;21.60;69.00;;;;;;6182860;23;20411;-77
2023/09/28 04:35:06;;;;;;;3.05;2.30;;;21.60;69.20;;;;;;6183460;23;20005;-78
2023/09/28 04:37:32;;;;;;;4.20;2.60;;;21.60;69.00;;;;;;6182828;23;20415;-77
2023/09/28 04:39:58;;;;;;;7.60;2.60;;;21.70;69.00;;;;;;6184356;23;20007;-80
2023/09/28 04:42:24;;;;;;;2.95;2.35;;;21.60;69.00;;;;;;6186082;23;20051;-80
2023/09/28 04:44:50;;;;;;;6.25;2.47;;;21.60;69.00;;;;;;6183557;23;20001;-80
2023/09/28 04:47:16;;;;;;;8.13;2.75;;;21.60;69.20;;;;;;6184116;23;20012;-80
2023/09/28 04:49:42;;;;;;;7.13;2.45;;;21.60;69.10;;;;;;6184725;23;20005;-79
2023/09/28 04:52:11;;;;;;;4.13;2.33;;;21.50;69.00;;;;;;6185970;23;20036;-79
2023/09/28 04:54:40;;;;;;;6.72;2.42;;;21.50;69.10;;;;;;6184482;23;20097;-80
2023/09/28 04:57:09;;;;;;;3.72;2.88;;;21.50;69.20;;;;;;6183500;23;20001;-79
2023/09/28 04:59:38;;;;;;;3.23;2.03;;;21.40;69.30;;;;;;6184288;23;20304;-79
2023/09/28 05:02:04;;;;;;;5.55;2.75;;;21.40;69.40;;;;;;6186802;23;20001;-79
2023/09/28 05:04:30;;;;;;;4.15;2.70;;;21.40;69.50;;;;;;6186301;23;20084;-79
2023/09/28 05:06:59;;;;;;;6.20;2.45;;;21.40;69.50;;;;;;6186587;23;20140;-78
2023/09/28 05:09:28;;;;;;;10.60;2.53;;;21.30;69.50;;;;;;6186435;23;20055;-78
2023/09/28 05:11:56;;;;;;;4.40;2.58;;;21.40;69.60;;;;;;6186610;23;20067;-79
2023/09/28 05:14:24;;;;;;;4.93;2.45;;;21.40;69.60;;;;;;6186069;23;20011;-79
2023/09/28 05:16:50;;;;;;;3.55;2.35;;;21.40;69.60;;;;;;6186257;23;20435;-77
2023/09/28 05:19:16;;;;;;;4.82;2.75;;;21.40;69.60;;;;;;6186672;23;20013;-79
2023/09/28 05:21:41;;;;;;;3.38;2.60;;;21.40;69.70;;;;;;6186445;23;20009;-80
2023/09/28 05:24:07;;;;;;;3.22;2.38;;;21.50;69.90;;;;;;6185050;23;20009;-79
2023/09/28 05:26:33;;;;;;;5.80;2.53;;;21.40;69.70;;;;;;6183267;23;20076;-76
2023/09/28 05:28:59;;;;;;;4.43;2.45;;;21.40;69.80;;;;;;6181793;23;20511;-79
2023/09/28 05:31:25;;;;;;;3.45;2.25;;;21.40;69.90;;;;;;6185060;23;20012;-80
2023/09/28 05:33:51;;;;;;;6.95;2.65;;;21.40;69.70;;;;;;6184668;23;20088;-79
2023/09/28 05:36:27;;;;;;;4.72;2.33;;;21.40;69.70;;;;;;6184881;23;20039;-80
2023/09/28 05:38:54;;;;;;;3.42;2.30;;;21.40;69.80;;;;;;6184195;23;20001;-82
2023/09/28 05:41:21;;;;;;;2.90;2.30;;;21.30;69.90;;;;;;6187316;23;20009;-81
2023/09/28 05:43:46;;;;;;;3.63;2.65;;;21.30;70.00;;;;;;6187323;23;20001;-80
2023/09/28 05:46:12;;;;;;;2.83;2.13;;;21.30;70.00;;;;;;6185821;23;20008;-81
2023/09/28 05:48:38;;;;;;;3.83;2.13;;;21.30;69.90;;;;;;6184260;23;20016;-82
2023/09/28 05:51:04;;;;;;;3.78;2.35;;;21.40;69.90;;;;;;6185212;23;20040;-82
2023/09/28 05:53:29;;;;;;;4.25;2.63;;;21.40;69.90;;;;;;6185840;23;19997;-81
2023/09/28 05:55:55;;;;;;;7.80;2.65;;;21.40;70.00;;;;;;6185020;23;20057;-81
2023/09/28 05:58:21;;;;;;;3.40;2.45;;;21.40;69.90;;;;;;6186238;23;20005;-81
2023/09/28 06:00:47;;;;;;;5.20;3.10;;;21.40;70.00;;;;;;6184609;23;20335;-81
2023/09/28 06:03:13;;;;;;;4.75;2.28;;;21.40;70.50;;;;;;6186377;23;20432;-81
2023/09/28 06:05:40;;;;;;;3.80;2.33;;;21.40;70.10;;;;;;6185888;23;20490;-81
2023/09/28 06:08:05;;;;;;;4.50;2.47;;;21.40;70.10;;;;;;6185504;23;20008;-80
2023/09/28 06:10:33;;;;;;;3.95;2.45;;;21.40;70.50;;;;;;6186191;23;20005;-80
2023/09/28 06:12:59;;;;;;;5.25;2.17;;;21.40;70.30;;;;;;6186399;23;20005;-80
2023/09/28 06:15:24;;;;;;;6.13;2.17;;;21.50;70.20;;;;;;6186439;23;20001;-80
2023/09/28 06:17:50;;;;;;;4.68;2.47;;;21.50;70.10;;;;;;6186286;23;20439;-80
2023/09/28 06:20:17;;;;;;;3.75;2.15;;;21.50;70.10;;;;;;6186276;23;20331;-80
2023/09/28 06:22:42;;;;;;;5.20;2.28;;;21.60;70.10;;;;;;6186036;23;20020;-80
2023/09/28 06:25:08;;;;;;;3.13;2.20;;;21.60;69.90;;;;;;6184764;23;20052;-81
2023/09/28 06:27:34;;;;;;;3.55;2.70;;;21.70;69.70;;;;;;6184640;23;20423;-81
2023/09/28 06:30:01;;;;;;;4.45;2.30;;;21.70;69.60;;;;;;6186168;23;20008;-81
2023/09/28 06:32:27;;;;;;;7.35;2.53;;;21.70;69.40;;;;;;6186749;23;20013;-81
2023/09/28 06:34:53;;;;;;;7.35;2.22;;;21.80;69.40;;;;;;6186027;23;20009;-80
2023/09/28 06:37:18;;;;;;;4.68;2.63;;;21.80;69.40;;;;;;6184637;23;20005;-81
2023/09/28 06:39:44;;;;;;;5.18;2.70;;;21.80;69.20;;;;;;6184804;23;20013;-80
2023/09/28 06:42:10;;;;;;;4.18;2.28;;;21.80;69.00;;;;;;6184673;23;20016;-81
2023/09/28 06:44:36;;;;;;;4.97;2.53;;;21.90;69.20;;;;;;6186443;23;20076;-81
2023/09/28 06:47:02;;;;;;;7.50;2.53;;;21.90;69.20;;;;;;6186533;23;20021;-81
2023/09/28 06:49:27;;;;;;;6.35;2.80;;;22.00;69.10;;;;;;6186498;23;20005;-81
2023/09/28 06:51:53;;;;;;;5.70;2.78;;;22.00;69.10;;;;;;6186543;23;20001;-80
2023/09/28 06:54:20;;;;;;;4.00;2.17;;;22.10;69.60;;;;;;6186325;23;19997;-80
2023/09/28 06:56:49;;;;;;;5.95;2.70;;;22.10;68.90;;;;;;6184359;23;20001;-81
2023/09/28 06:59:15;;;;;;;6.03;2.20;;;22.10;68.70;;;;;;6184636;23;20005;-81
2023/09/28 07:01:41;;;;;;;7.03;2.42;;;22.20;68.90;;;;;;6185216;23;20013;-80
2023/09/28 07:04:06;;;;;;;3.20;2.10;;;22.30;69.10;;;;;;6186077;23;20009;-82
2023/09/28 07:06:35;;;;;;;4.25;2.03;;;22.40;69.10;;;;;;6184676;23;20056;-82
2023/09/28 07:09:02;;;;;;;6.03;2.53;;;22.50;69.10;;;;;;6186310;23;20307;-82
2023/09/28 07:11:29;;;;;;;3.90;2.15;;;22.50;69.50;;;;;;6186302;23;20005;-82
2023/09/28 07:13:54;;;;;;;5.30;2.42;;;22.60;68.80;;;;;;6186186;23;19997;-82
2023/09/28 07:16:20;;;;;;;9.80;3.00;;;22.60;68.80;;;;;;6184428;23;20016;-82
2023/09/28 07:18:46;;;;;;;9.30;2.83;;;22.70;68.60;;;;;;6183963;23;20055;-82
2023/09/28 07:21:11;;;;;;;4.10;1.98;;;22.70;68.30;;;;;;6184654;23;20001;-82
2023/09/28 07:23:39;;;;;;;7.60;2.50;;;22.80;68.50;;;;;;6184635;23;20298;-82
2023/09/28 07:26:18;;;;;;;2.67;1.85;;;22.90;68.50;;;;;;6184988;23;20057;-82
2023/09/28 07:28:44;;;;;;;7.13;2.65;;;23.00;68.30;;;;;;6185544;23;20392;-82
2023/09/28 07:31:11;;;;;;;5.50;2.63;;;23.00;67.80;;;;;;6183853;23;20020;-82
2023/09/28 07:33:37;;;;;;;5.15;2.20;;;23.20;67.60;;;;;;6186144;23;20001;-81
2023/09/28 07:36:05;;;;;;;5.80;2.53;;;23.20;67.00;;;;;;6185607;23;20024;-81
2023/09/28 07:38:34;;;;;;;4.68;2.35;;;23.30;66.90;;;;;;6184275;23;20435;-80
2023/09/28 07:41:01;;;;;;;4.40;2.38;;;23.40;67.00;;;;;;6184907;23;20012;-82
2023/09/28 07:43:28;;;;;;;4.82;2.33;;;23.50;67.80;;;;;;6179669;23;20008;-83
2023/09/28 07:46:06;;;;;;;4.70;2.25;;;23.70;67.30;;;;;;6182923;23;20008;-80
2023/09/28 07:48:32;;;;;;;7.75;2.40;;;23.80;66.50;;;;;;6183033;23;20029;-79
2023/09/28 07:50:58;;;;;;;3.08;2.25;;;23.90;66.50;;;;;;6184905;23;20001;-78
2023/09/28 07:53:24;;;;;;;7.70;2.58;;;24.00;66.60;;;;;;6185090;23;20336;-79
2023/09/28 07:55:50;;;;;;;7.35;2.50;;;24.10;65.80;;;;;;6185042;23;20439;-78
2023/09/28 07:58:16;;;;;;;3.63;1.88;;;24.30;65.90;;;;;;6184753;23;20012;-79
2023/09/28 08:00:42;;;;;;;5.90;2.30;;;24.40;65.60;;;;;;6183022;23;20112;-78
2023/09/28 08:03:07;;;;;;;6.47;2.58;;;24.50;65.90;;;;;;6182263;23;20009;-78
2023/09/28 08:05:33;;;;;;;8.23;2.65;;;24.60;65.70;;;;;;6181905;23;20387;-79
2023/09/28 08:08:00;;;;;;;5.45;2.47;;;24.70;64.10;;;;;;6182702;23;20016;-80
2023/09/28 08:10:26;;;;;;;4.72;2.40;;;24.70;63.00;;;;;;6182708;23;20016;-79
2023/09/28 08:12:53;;;;;;;5.63;2.35;;;24.80;62.80;;;;;;6183465;23;20005;-79
2023/09/28 08:15:18;;;;;;;3.80;2.65;;;24.80;64.20;;;;;;6184419;23;20001;-79
2023/09/28 08:17:47;;;;;;;7.03;2.40;;;24.90;62.10;;;;;;6184400;23;20450;-80
2023/09/28 08:20:15;;;;;;;4.35;2.35;;;25.00;63.10;;;;;;6184522;23;19997;-81
2023/09/28 08:22:40;;;;;;;5.85;2.70;;;25.20;62.60;;;;;;6183808;23;20008;-79
2023/09/28 08:25:08;;;;;;;3.75;2.03;;;25.30;62.30;;;;;;6184478;23;19998;-78
2023/09/28 08:27:35;;;;;;;3.65;2.33;;;25.40;61.90;;;;;;6184292;23;20305;-79
2023/09/28 08:30:01;;;;;;;5.32;2.45;;;25.40;62.30;;;;;;6181188;23;20112;-79
2023/09/28 08:32:27;;;;;;;7.63;2.95;;;25.50;61.10;;;;;;6184237;23;20013;-79
2023/09/28 08:34:52;;;;;;;6.40;2.25;;;25.60;60.20;;;;;;6182846;23;20131;-79
2023/09/28 08:37:19;;;;;;;4.13;2.45;;;25.60;61.00;;;;;;6183632;23;20005;-79
2023/09/28 08:39:45;;;;;;;4.60;2.88;;;25.60;61.50;;;;;;6183910;23;20001;-78
2023/09/28 08:42:15;;;;;;;5.25;2.53;;;25.70;61.10;;;;;;6184181;23;20039;-79
2023/09/28 08:44:41;;;;;;;4.47;2.13;;;25.70;61.20;;;;;;6181933;23;20069;-79
2023/09/28 08:47:16;;;;;;;8.70;2.20;;;25.80;61.80;;;;;;6184430;23;20336;-79
2023/09/28 08:49:46;;;;;;;7.38;2.40;;;26.00;61.20;;;;;;6184244;23;20008;-81
2023/09/28 08:52:14;;;;;;;4.40;3.05;;;26.10;60.80;;;;;;6183159;23;20032;-81
2023/09/28 08:54:42;;;;;;;6.50;3.25;;;26.30;61.10;;;;;;6184199;23;20105;-81
2023/09/28 08:57:09;;;;;;;4.38;2.40;;;26.40;60.00;;;;;;6182888;23;20001;-81
2023/09/28 08:59:37;;;;;;;5.22;3.22;;;26.50;59.20;;;;;;6184706;23;20007;-81
2023/09/28 09:02:03;;;;;;;3.28;2.30;;;26.70;59.40;;;;;;6185124;23;20000;-81
2023/09/28 09:04:35;;;;;;;5.32;2.90;;;26.80;59.30;;;;;;6185409;23;20041;-81
2023/09/28 09:07:04;;;;;;;6.43;2.47;;;26.90;58.40;;;;;;6184927;23;20008;-81
2023/09/28 09:09:35;;;;;;;4.68;2.35;;;26.90;58.50;;;;;;6182248;23;20371;-81
2023/09/28 09:12:09;;;;;;;4.38;2.70;;;27.10;57.80;;;;;;6184101;23;20005;-81
2023/09/28 09:14:34;;;;;;;4.13;2.30;;;27.20;57.60;;;;;;6183816;23;20075;-82
2023/09/28 09:17:00;;;;;;;5.60;2.45;;;27.30;58.10;;;;;;6181693;23;20044;-83
2023/09/28 09:19:30;;;;;;;7.65;2.75;;;27.40;58.00;;;;;;6185014;23;20004;-81
2023/09/28 09:21:57;;;;;;;5.05;3.22;;;27.50;57.80;;;;;;6182743;23;20104;-81
2023/09/28 09:24:23;;;;;;;11.70;2.63;;;27.70;56.40;;;;;;6182622;23;20348;-81
2023/09/28 09:26:52;;;;;;;4.30;2.83;;;27.80;56.90;;;;;;6186695;23;20012;-81
2023/09/28 09:29:19;;;;;;;8.27;2.90;;;27.90;56.20;;;;;;6184337;23;20012;-81
2023/09/28 09:31:47;;;;;;;5.95;2.60;;;27.90;56.40;;;;;;6183947;23;20443;-81
2023/09/28 09:34:14;;;;;;;4.60;3.13;;;28.00;56.50;;;;;;6184812;23;20016;-81
2023/09/28 09:36:43;;;;;;;9.48;3.33;;;28.20;56.70;;;;;;6182037;23;20001;-82
2023/09/28 09:39:26;;;;;;;4.27;2.30;;;28.30;56.10;;;;;;6185890;23;20355;-80
2023/09/28 09:41:53;;;;;;;4.65;2.88;;;28.40;55.20;;;;;;6186138;23;20225;-79
2023/09/28 09:44:20;;;;;;;6.53;2.90;;;28.50;55.70;;;;;;6185853;23;20043;-80
2023/09/28 09:46:51;;;;;;;6.57;3.40;;;28.60;55.80;;;;;;6186068;23;20009;-80
2023/09/28 09:49:19;;;;;;;5.88;2.45;;;28.70;55.20;;;;;;6185489;23;20012;-80
2023/09/28 09:51:46;;;;;;;6.03;2.92;;;28.80;56.10;;;;;;6185282;23;20087;-80
2023/09/28 09:54:16;;;;;;;10.85;2.90;;;28.90;54.90;;;;;;6185336;23;20019;-80
2023/09/28 09:56:46;;;;;;;9.32;2.90;;;29.00;54.20;;;;;;6185890;23;20009;-80
2023/09/28 09:59:21;;;;;;;6.22;3.10;;;29.10;54.20;;;;;;6185777;23;19997;-80
2023/09/28 10:01:53;;;;;;;5.82;2.80;;;29.20;54.00;;;;;;6185547;23;20079;-80
2023/09/28 10:04:21;;;;;;;5.50;2.55;;;29.30;54.30;;;;;;6183396;23;20037;-80
2023/09/28 10:06:51;;;;;;;7.97;3.00;;;29.30;54.20;;;;;;6183347;23;20012;-80
2023/09/28 10:09:19;;;;;;;7.38;3.30;;;29.40;53.80;;;;;;6183776;23;20005;-80
2023/09/28 10:11:49;;;;;;;7.65;2.60;;;29.60;53.40;;;;;;6184147;23;20027;-80
2023/09/28 10:14:17;;;;;;;3.58;3.00;;;29.60;52.80;;;;;;6184820;23;20001;-80
2023/09/28 10:16:44;;;;;;;5.75;2.72;;;29.70;52.10;;;;;;6183508;23;20001;-80
2023/09/28 10:19:15;;;;;;;5.38;3.03;;;29.80;52.70;;;;;;6185283;23;20024;-80
2023/09/28 10:21:41;;;;;;;4.07;3.03;;;29.90;52.50;;;;;;6185988;23;20012;-80
2023/09/28 10:24:12;;;;;;;6.03;2.65;;;29.90;53.00;;;;;;6185611;23;20339;-80
2023/09/28 10:26:42;;;;;;;4.63;2.97;;;30.10;52.90;;;;;;6185189;23;20008;-80
2023/09/28 10:29:12;;;;;;;6.90;2.72;;;30.20;53.10;;;;;;6181223;23;20531;-80
2023/09/28 10:31:42;;;;;;;4.80;3.20;;;30.30;51.90;;;;;;6182622;23;20036;-80
2023/09/28 10:34:08;;;;;;;;;;;30.30;52.50;;;;;;6183662;23;20001;-80
2023/09/28 10:36:37;;;;;;;8.70;2.33;;;30.40;52.30;;;;;;6182487;23;19983;-80
2023/09/28 10:39:14;;;;;;;5.20;2.85;;;30.50;52.60;;;;;;6181158;23;20001;-80
2023/09/28 10:42:11;;;;;;;4.18;2.60;;;30.70;51.90;;;;;;6180919;23;20449;-80
2023/09/28 10:44:50;;;;;;;6.10;2.85;;;30.90;52.00;;;;;;6182058;23;20016;-80
2023/09/28 10:47:16;;;;;;;6.45;2.65;;;31.10;52.00;;;;;;6182941;23;20040;-80
2023/09/28 10:49:42;;;;;;;6.50;3.05;;;31.20;51.10;;;;;;6183595;23;20114;-80
2023/09/28 10:52:11;;;;;;;5.82;3.30;;;31.30;51.00;;;;;;6185413;23;20005;-84
2023/09/28 10:54:38;;;;;;;6.20;2.72;;;31.50;50.90;;;;;;6186022;23;20001;-80
2023/09/28 10:57:04;;;;;;;4.70;2.58;;;31.60;50.40;;;;;;6185656;23;19997;-80
2023/09/28 10:59:30;;;;;;;6.35;2.60;;;31.80;50.50;;;;;;6185498;23;20005;-80
2023/09/28 11:01:56;;;;;;;5.22;2.42;;;31.80;48.80;;;;;;6183646;23;20055;-80
2023/09/28 11:04:22;;;;;;;4.03;2.58;;;31.90;49.10;;;;;;6183502;23;20009;-80
2023/09/28 11:06:49;;;;;;;3.70;2.75;;;31.90;47.20;;;;;;6183391;23;20060;-80
2023/09/28 11:09:19;;;;;;;4.68;2.42;;;31.80;47.00;;;;;;6185304;23;20001;-80
2023/09/28 11:11:45;;;;;;;4.45;2.30;;;31.80;47.80;;;;;;6185519;23;20060;-80
2023/09/28 11:14:12;;;;;;;4.75;3.00;;;32.00;47.60;;;;;;6183672;23;20001;-80
2023/09/28 11:16:39;;;;;;;5.15;2.80;;;32.20;46.70;;;;;;6184949;23;20001;-81
2023/09/28 11:19:08;;;;;;;4.45;2.53;;;32.40;46.20;;;;;;6185614;23;19997;-83
2023/09/28 11:21:34;;;;;;;4.07;2.05;;;32.40;46.20;;;;;;6184865;23;20001;-83
2023/09/28 11:24:02;;;;;;;5.47;2.70;;;32.50;46.60;;;;;;6183952;23;20091;-83
2023/09/28 11:26:29;;;;;;;4.53;2.63;;;32.70;44.70;;;;;;6186063;23;20363;-84
2023/09/28 11:28:57;;;;;;;10.00;2.97;;;32.80;44.70;;;;;;6186117;23;20008;-83
2023/09/28 11:31:23;;;;;;;4.38;2.55;;;32.90;44.50;;;;;;6182598;23;20349;-79
2023/09/28 11:33:49;;;;;;;4.75;2.72;;;33.10;44.40;;;;;;6184292;23;20028;-81
2023/09/28 11:36:20;;;;;;;4.53;2.53;;;33.20;44.40;;;;;;6185320;23;20481;-80
2023/09/28 11:38:47;;;;;;;9.80;3.38;;;33.50;44.10;;;;;;6185203;23;20004;-80
2023/09/28 11:41:14;;;;;;;6.78;2.92;;;33.60;43.50;;;;;;6183796;23;20023;-79
2023/09/28 11:43:56;;;;;;;5.18;2.63;;;33.80;44.50;;;;;;6185132;23;20206;-79
2023/09/28 11:51:54;;;;;;;4.32;2.92;;;34.30;44.40;;;;;;6148023;23;20326;-92
2023/09/28 11:54:21;;;;;;;5.47;2.60;;;34.40;43.90;;;;;;6072188;23;20333;-93
2023/09/28 11:56:47;;;;;;;4.63;3.00;;;34.60;43.80;;;;;;6094268;23;20496;-93
2023/09/28 11:59:15;;;;;;;4.03;3.20;;;34.70;43.70;;;;;;6077679;23;20009;-92
2023/09/28 12:01:45;;;;;;;6.55;3.03;;;34.80;43.80;;;;;;6097557;23;20282;-94
2023/09/28 12:04:11;;;;;;;7.32;3.13;;;35.00;43.80;;;;;;6077178;23;20007;-95
2023/09/28 12:06:37;;;;;;;6.90;3.10;;;35.10;44.50;;;;;;6103287;23;20010;-95
2023/09/28 12:09:06;;;;;;;4.28;3.08;;;35.30;44.60;;;;;;6078291;23;20010;-94
2023/09/28 12:11:40;;;;;;;8.90;3.20;;;35.40;44.70;;;;;;6076634;23;20014;-95
2023/09/28 12:14:07;;;;;;;7.25;3.20;;;35.50;44.90;;;;;;6102809;23;20014;-93
2023/09/28 12:16:33;;;;;;;5.38;3.08;;;35.60;45.10;;;;;;6101318;23;20023;-94
2023/09/28 12:19:08;;;;;;;5.82;3.03;;;35.60;45.20;;;;;;6100674;23;20294;-96
2023/09/28 12:21:34;;;;;;;7.80;3.38;;;35.60;45.30;;;;;;6100942;23;20006;-95
2023/09/28 12:24:03;;;;;;;5.75;3.10;;;35.60;45.20;;;;;;6076075;23;20011;-94
2023/09/28 12:26:29;;;;;;;5.40;3.17;;;35.50;44.70;;;;;;6076654;23;20011;-93
2023/09/28 12:28:57;;;;;;;6.45;3.20;;;35.50;44.40;;;;;;6076090;23;20018;-93
2023/09/28 12:31:23;;;;;;;5.68;3.25;;;35.50;44.20;;;;;;6098900;23;20046;-93
2023/09/28 12:33:49;;;;;;;5.45;2.63;;;35.60;43.30;;;;;;6077780;23;20030;-91
2023/09/28 12:36:18;;;;;;;4.65;2.50;;;35.60;42.00;;;;;;6074195;23;20030;-95
2023/09/28 12:38:44;;;;;;;6.15;2.83;;;35.50;42.10;;;;;;6098402;23;20077;-93
2023/09/28 12:41:11;;;;;;;7.47;3.00;;;35.50;41.90;;;;;;6073014;23;19998;-93
2023/09/28 12:43:37;;;;;;;3.38;2.60;;;35.50;41.80;;;;;;6073249;23;20009;-93
2023/09/28 12:46:04;;;;;;;7.28;2.97;;;35.40;41.50;;;;;;6074120;23;20006;-92
2023/09/28 12:48:30;;;;;;;4.63;2.70;;;35.40;41.30;;;;;;6073407;23;20026;-93
2023/09/28 12:50:57;;;;;;;11.00;3.17;;;35.30;41.20;;;;;;6074626;23;20078;-93
2023/09/28 12:53:26;;;;;;;6.72;2.90;;;35.20;41.40;;;;;;6121895;23;20452;-91
2023/09/28 12:55:53;;;;;;;5.15;2.75;;;35.10;41.00;;;;;;6129498;23;20037;-93